Tropical Cyclones
[Index]
Main Index Home Page Stock Weather Photos Extreme Storms Discussion Storm News and Storm Chasing Reports Tropical Cyclones / Hurricanes / Typhoons Weather Data and Links Wild Fires / Bushfires Weather Observation Techniques Weather Picture Catalogue Tornado Pictures and Reports Stock Video Footage and DVDs for sale
Season 2005-2006 Tropical Cyclone HYBRID-LOW-01 Track Map
Season 2005-2006 Summaries (Operational Data): [AU] [SIO] [SPAC] [SH]
<<- Previous TC | 2005-2006 Season | Next TC ->>

click for intensity scale information  Lat/long Grid: Show Hide

 Date Labels: Show Hide

Operational Tropical Cyclone Data

Name: HYBRID-LOW-01
Number: 06PE

01 Mar 2006 03:00 UTC to 06 Mar 2006 06:00 UTC

    date/time    lat    long     hPa   cat  kts
2006-03-01 03   19.0   152.0                 30          
2006-03-01 06   19.0   153.0                 30          
2006-03-01 12   19.0   154.0    1006         30          
2006-03-01 18   19.0   154.0    1005         30          
2006-03-02 00   23.0   154.5    1008         30          
2006-03-02 06   22.7   153.5    1006         30          
2006-03-02 12   23.3   154.5    1005         30          
2006-03-02 18   24.0   154.5    1000    2    50          
2006-03-03 00   24.5   154.1    1000    2    50          
2006-03-03 06   25.5   154.2    1002    2    55          
2006-03-03 12   25.8   154.5    1000    2    50          
2006-03-03 18   27.0   154.8     997    2    50          
2006-03-04 00   26.8   154.8     998    2    55          
2006-03-04 06   27.0   154.8     998    2    55          
2006-03-04 12   27.0   154.8     998    2    55          
2006-03-04 18   27.0   154.7     996    2    55          
2006-03-05 00   27.2   154.2     995    2    55          
2006-03-05 06   27.2   154.6    1000    2    55          
2006-03-05 12   27.6   155.1    1002    1    45          
2006-03-05 18   28.5   156.0    1002    1    40          
2006-03-05 23   28.5   157.5    1000    1    40          
2006-03-06 06   29.5   160.0    1000    1    40          
Winds are 10-min average.

Tropical cyclone tracks developed by Michael Bath using operational warnings and advisories and Google Maps.


[Australian Severe Weather index] [Copyright Notice] [Email Contacts] [Search This Site] [Privacy Policy]
Document: tropical_cyclone_hybrid-low-01.htm Updated: 28 May 2013